Terminal Aerodrome Forecast
Issued by NWS

Home | Current Version | Previous Version | Graphics & Text | Print | Product List | Glossary On
Versions: 1 2 3 4 5 6 7 8 9 10 11 12 13 14 15 16 17 18 19
000
FTUS43 KBIS 290529
TAFJMS
TAF
KJMS 290529Z 2906/3006 19008KT P6SM SCT250
     FM290800 19006KT 5SM BR SCT250
      TEMPO 2909/2913 3SM BR
     FM291600 20009KT P6SM SCT250
     FM300300 17010KT P6SM SCT250=

USA.gov is the U.S. government's official web portal to all federal, state and local government web resources and services.